Time;durP1;ratioP1;P1;durP2;ratioP2;P2;SDS_P1;SDS_P2;PMS_P1;PMS_P2;Temp;Humidity;BMP_temperature;BMP_pressure;BME280_temperature;BME280_humidity;BME280_pressure;Samples;Min_cycle;Max_cycle;Signal;HPM_P1;HPM_P2
2022/05/22 00:02:32;;;;;;;4.95;2.70;;;;;;;13.16;100.00;100625.03;21074264;28;20089;-73
2022/05/22 00:12:34;;;;;;;7.00;2.45;;;;;;;12.99;100.00;100628.06;21073180;28;20101;-73
2022/05/22 00:22:35;;;;;;;5.60;2.50;;;;;;;12.58;100.00;100619.28;21071767;28;20056;-73
2022/05/22 00:32:37;;;;;;;5.82;2.78;;;;;;;12.69;100.00;100610.31;21071867;28;20044;-71
2022/05/22 00:42:42;;;;;;;6.22;2.20;;;;;;;12.63;100.00;100606.06;21071429;28;20044;-73
2022/05/22 00:52:49;;;;;;;7.63;2.35;;;;;;;12.40;100.00;100593.38;21094316;22;20131;-68
2022/05/22 01:13:13;;;;;;;5.50;2.47;;;;;;;11.80;100.00;100601.50;21068058;28;20089;-68
2022/05/22 01:23:16;;;;;;;3.90;2.20;;;;;;;11.85;100.00;100589.19;21069257;28;20141;-69
2022/05/22 01:33:17;;;;;;;7.15;2.20;;;;;;;11.32;100.00;100609.28;21070453;28;20055;-69
2022/05/22 01:43:19;;;;;;;5.25;2.00;;;;;;;11.30;100.00;100600.56;21084209;28;20051;-69
2022/05/22 01:53:22;;;;;;;5.43;2.42;;;;;;;11.41;100.00;100596.03;21083139;28;20148;-69
2022/05/22 02:03:23;;;;;;;5.80;2.35;;;;;;;11.71;100.00;100580.66;21082321;28;20044;-69
2022/05/22 02:13:31;;;;;;;5.97;2.22;;;;;;;11.83;100.00;100575.22;21081440;28;20044;-69
2022/05/22 02:23:34;;;;;;;5.47;2.50;;;;;;;11.79;100.00;100578.78;21081072;28;20058;-69
2022/05/22 02:33:36;;;;;;;6.28;2.38;;;;;;;11.60;100.00;100566.88;21079757;28;20082;-68
2022/05/22 02:43:37;;;;;;;5.15;2.25;;;;;;;11.52;100.00;100554.75;21078504;28;20478;-68
2022/05/22 02:53:40;;;;;;;6.07;2.20;;;;;;;11.40;100.00;100533.13;21078259;28;20051;-69
2022/05/22 03:03:42;;;;;;;4.63;2.40;;;;;;;11.32;100.00;100530.63;21077413;28;20052;-68
2022/05/22 03:13:45;;;;;;;4.32;2.47;;;;;;;11.16;100.00;100518.66;21076755;28;20044;-68
2022/05/22 03:23:46;;;;;;;5.80;2.65;;;;;;;11.07;100.00;100530.19;21075934;28;20726;-69
2022/05/22 03:33:48;;;;;;;7.28;2.83;;;;;;;10.92;100.00;100526.03;21075029;28;20094;-68
2022/05/22 03:43:51;;;;;;;6.75;2.38;;;;;;;10.87;100.00;100527.84;21074064;28;20097;-68
2022/05/22 03:53:53;;;;;;;5.75;2.72;;;;;;;10.92;100.00;100520.81;21073123;28;20074;-68
2022/05/22 04:03:56;;;;;;;8.43;2.72;;;;;;;11.16;100.00;100510.78;21071230;28;20456;-69
2022/05/22 04:13:57;;;;;;;5.20;2.42;;;;;;;11.23;100.00;100494.97;21071989;28;20058;-68
2022/05/22 04:34:19;;;;;;;6.32;2.60;;;;;;;11.68;100.00;100496.78;21069168;28;20051;-68
2022/05/22 04:44:21;;;;;;;6.85;2.90;;;;;;;11.96;100.00;100492.75;21069188;28;20174;-68
2022/05/22 04:54:22;;;;;;;4.53;2.78;;;;;;;11.88;100.00;100486.81;21068636;28;20048;-69
2022/05/22 05:04:23;;;;;;;7.45;3.33;;;;;;;11.71;100.00;100487.09;21067288;28;20101;-68
2022/05/22 05:14:25;;;;;;;5.20;3.47;;;;;;;11.91;100.00;100472.75;21065742;28;20052;-68
2022/05/22 05:24:26;;;;;;;10.02;3.50;;;;;;;12.05;100.00;100460.22;21066992;28;20489;-68
2022/05/22 05:34:28;;;;;;;9.32;4.60;;;;;;;12.18;100.00;100472.22;21065819;28;20496;-66
2022/05/22 05:44:33;;;;;;;9.82;4.55;;;;;;;12.52;100.00;100468.84;21065908;28;20062;-66
2022/05/22 05:54:34;;;;;;;9.93;5.00;;;;;;;12.97;100.00;100464.25;21065364;28;20059;-66
2022/05/22 06:04:36;;;;;;;7.22;4.60;;;;;;;13.20;100.00;100475.97;21064378;28;20044;-67
2022/05/22 06:14:37;;;;;;;8.73;5.25;;;;;;;13.50;100.00;100482.22;21064757;28;20044;-67
2022/05/22 06:24:39;;;;;;;9.60;5.93;;;;;;;13.89;100.00;100476.78;21075499;28;20040;-67
2022/05/22 06:34:41;;;;;;;11.30;5.43;;;;;;;14.14;100.00;100491.00;21078969;28;20054;-66
2022/05/22 06:44:42;;;;;;;7.80;4.97;;;;;;;14.31;100.00;100479.94;21078606;28;20048;-66
2022/05/22 06:54:44;;;;;;;9.93;5.00;;;;;;;14.52;100.00;100479.34;21078189;28;20121;-67
2022/05/22 07:04:45;;;;;;;8.88;4.60;;;;;;;15.06;100.00;100462.69;21049554;28;20489;-67
2022/05/22 07:14:48;;;;;;;6.50;3.95;;;;;;;15.45;100.00;100446.41;21022565;28;20048;-68
2022/05/22 07:24:51;;;;;;;7.50;4.10;;;;;;;15.65;99.02;100454.50;21024405;28;20052;-68
2022/05/22 07:34:52;;;;;;;8.02;4.90;;;;;;;15.71;98.41;100447.28;21030470;28;20044;-67
2022/05/22 07:44:55;;;;;;;11.43;5.13;;;;;;;16.08;96.42;100452.94;21045785;28;20089;-67
2022/05/22 07:54:57;;;;;;;11.68;5.25;;;;;;;16.23;96.99;100429.50;21063609;28;20056;-67
2022/05/22 08:04:58;;;;;;;8.57;5.00;;;;;;;16.72;90.86;100409.06;21063580;28;20048;-65
2022/05/22 08:15:00;;;;;;;11.23;5.22;;;;;;;17.11;81.24;100396.84;21018503;28;20064;-66
2022/05/22 08:25:04;;;;;;;6.00;3.85;;;;;;;17.34;79.99;100389.69;21060382;28;20055;-66
2022/05/22 08:35:07;;;;;;;7.07;4.40;;;;;;;17.68;79.66;100373.19;21144970;28;20043;-66
2022/05/22 08:45:19;;;;;;;7.65;4.00;;;;;;;18.41;79.04;100363.59;21078799;28;20059;-67
2022/05/22 09:05:56;;;;;;;7.90;3.53;;;;;;;19.01;73.54;100331.44;21057976;28;20044;-66
2022/05/22 09:16:10;;;;;;;8.45;2.90;;;;;;;19.55;69.44;100321.50;21059163;28;20044;-66
2022/05/22 09:26:29;;;;;;;;;;;;;;;20.42;67.04;100314.00;21059630;28;20048;-67
2022/05/22 09:36:44;;;;;;;7.05;2.80;;;;;;;20.42;61.96;100309.53;21057873;28;20353;-67
2022/05/22 09:47:19;;;;;;;4.25;1.90;;;;;;;21.15;57.99;100298.13;21058323;28;20434;-68
2022/05/22 09:57:48;;;;;;;3.97;1.77;;;;;;;21.27;50.32;100276.94;21065605;28;20496;-67
2022/05/22 10:08:11;;;;;;;5.63;1.70;;;;;;;21.38;56.89;100270.13;21073370;28;20044;-67
2022/05/22 10:18:31;;;;;;;4.47;1.80;;;;;;;21.47;53.91;100251.75;21073378;28;20109;-67
2022/05/22 10:28:39;;;;;;;5.82;1.63;;;;;;;22.25;54.32;100227.16;21072219;28;20059;-68
2022/05/22 10:38:45;;;;;;;5.13;1.50;;;;;;;22.27;49.07;100203.91;21071273;28;20086;-68
2022/05/22 10:48:55;;;;;;;3.90;1.40;;;;;;;22.30;50.99;100198.38;21070503;28;20411;-67
2022/05/22 10:59:00;;;;;;;5.18;1.70;;;;;;;22.27;51.54;100182.56;21069817;28;20500;-67
2022/05/22 11:09:02;;;;;;;5.40;2.00;;;;;;;22.65;47.72;100177.25;21068473;28;20040;-67
2022/05/22 11:19:12;;;;;;;6.10;2.75;;;;;;;22.69;49.01;100170.75;20990209;28;20049;-67
2022/05/22 11:29:30;;;;;;;5.00;1.50;;;;;;;22.68;48.42;100152.19;20984620;28;20048;-67
2022/05/22 11:39:50;;;;;;;6.13;2.00;;;;;;;23.17;46.87;100157.59;20982404;28;20114;-67
2022/05/22 11:50:04;;;;;;;6.88;2.28;;;;;;;23.39;46.55;100153.38;20982308;28;20048;-67
2022/05/22 12:00:14;;;;;;;6.95;2.20;;;;;;;23.48;46.04;100139.34;20980243;28;20048;-68
2022/05/22 12:10:31;;;;;;;4.20;1.20;;;;;;;22.94;39.71;100115.66;20985146;28;20558;-67
2022/05/22 12:20:43;;;;;;;3.13;1.20;;;;;;;22.83;39.77;100100.38;21062438;28;20492;-67
2022/05/22 12:30:45;;;;;;;2.30;1.10;;;;;;;23.20;38.65;100077.25;21044699;28;20041;-67
2022/05/22 12:41:03;;;;;;;3.85;1.48;;;;;;;23.67;36.98;100059.53;21022060;28;20109;-67
2022/05/22 12:51:10;;;;;;;4.05;1.00;;;;;;;23.63;35.75;100036.66;21062243;28;20109;-67
2022/05/22 13:01:37;;;;;;;3.05;1.13;;;;;;;23.63;35.85;100030.44;21060263;28;20051;-66
2022/05/22 13:11:51;;;;;;;4.82;1.55;;;;;;;23.46;35.86;100021.03;21043766;28;20045;-66
2022/05/22 13:22:11;;;;;;;5.47;1.25;;;;;;;24.00;37.61;100018.66;20976073;28;20098;-66
2022/05/22 13:32:19;;;;;;;3.08;1.17;;;;;;;23.72;36.20;100008.41;20974511;28;20074;-67
2022/05/22 13:42:41;;;;;;;2.90;1.10;;;;;;;24.00;36.37;100007.09;20974925;28;20056;-67
2022/05/22 13:53:14;;;;;;;3.83;1.20;;;;;;;24.03;34.19;100022.91;20974447;28;20044;-67
2022/05/22 14:03:24;;;;;;;3.95;1.20;;;;;;;24.37;34.61;100012.28;20974140;28;20052;-66
2022/05/22 14:13:27;;;;;;;6.88;1.77;;;;;;;24.10;34.63;100025.94;21004489;28;20048;-66
2022/05/22 14:23:32;;;;;;;3.13;1.00;;;;;;;24.08;33.42;100015.38;21055447;28;20162;-67
2022/05/22 14:33:35;;;;;;;3.55;1.17;;;;;;;24.15;33.88;100015.78;21055854;28;20044;-65
2022/05/22 14:43:43;;;;;;;3.67;1.33;;;;;;;24.24;34.25;100010.56;21063106;28;20048;-68
2022/05/22 14:53:46;;;;;;;3.53;1.30;;;;;;;24.09;35.07;100000.19;21069935;28;20069;-67
2022/05/22 15:03:50;;;;;;;5.22;1.50;;;;;;;23.85;36.70;99985.06;21068889;28;20044;-67
2022/05/22 15:14:05;;;;;;;4.88;1.25;;;;;;;24.13;35.22;99962.38;21034902;28;20048;-67
2022/05/22 15:34:37;;;;;;;3.17;1.08;;;;;;;23.98;33.08;99939.53;20983243;28;20106;-66
2022/05/22 15:45:02;;;;;;;2.30;0.80;;;;;;;23.84;31.82;99934.41;20982788;28;20052;-67
2022/05/22 15:55:04;;;;;;;2.90;1.23;;;;;;;23.62;34.96;99909.31;20980941;28;20075;-67
2022/05/22 16:05:11;;;;;;;10.35;6.20;;;;;;;23.14;42.77;99928.16;20980131;28;20052;-67
2022/05/22 16:15:15;;;;;;;11.95;9.02;;;;;;;22.64;41.09;99859.81;21026045;28;20405;-65
2022/05/22 16:25:18;;;;;;;6.28;1.13;;;;;;;22.64;42.93;99796.63;21062687;28;20147;-66
2022/05/22 16:35:24;;;;;;;4.70;1.40;;;;;;;22.12;47.68;99810.28;21061607;28;20052;-65
2022/05/22 16:45:28;;;;;;;5.43;1.20;;;;;;;22.12;42.43;99811.16;21061427;28;20043;-65
2022/05/22 16:55:37;;;;;;;4.43;1.20;;;;;;;22.10;40.33;99837.06;21059992;28;20438;-65
2022/05/22 17:05:39;;;;;;;3.03;1.33;;;;;;;22.17;42.43;99840.16;21058415;28;20116;-65
2022/05/22 17:15:41;;;;;;;3.25;1.70;;;;;;;22.44;45.55;99845.28;21009571;28;20416;-65
2022/05/22 17:25:42;;;;;;;4.47;1.70;;;;;;;22.57;47.17;99843.41;20974114;28;20048;-64
2022/05/22 17:35:44;;;;;;;4.10;1.52;;;;;;;22.00;53.49;99857.34;20974261;28;20048;-65
2022/05/22 17:45:47;;;;;;;4.93;1.70;;;;;;;21.80;54.25;99807.25;20974012;28;20070;-65
2022/05/22 17:55:52;;;;;;;5.45;2.03;;;;;;;21.88;51.75;99772.91;20973598;28;20045;-65
2022/05/22 18:05:53;;;;;;;4.80;1.80;;;;;;;21.56;51.77;99768.09;20970673;28;20079;-65
2022/05/22 18:16:07;;;;;;;6.53;2.00;;;;;;;21.34;59.58;99781.22;21026153;28;20070;-65
2022/05/22 18:26:11;;;;;;;;;;;;;;;21.18;61.31;99750.31;21071187;28;20048;-64
2022/05/22 18:36:17;;;;;;;6.70;3.40;;;;;;;21.15;60.59;99747.88;21068609;28;19927;-65
2022/05/22 18:46:18;;;;;;;3.80;1.67;;;;;;;20.71;69.38;99757.09;21065890;28;20075;-64
2022/05/22 18:56:27;;;;;;;6.03;1.95;;;;;;;20.22;75.90;99776.31;21069107;28;20047;-65
2022/05/22 19:06:28;;;;;;;6.45;2.85;;;;;;;19.72;82.04;99753.00;21064708;28;20522;-64
2022/05/22 19:16:34;;;;;;;3.97;1.80;;;;;;;19.75;80.12;99744.00;21019801;28;20052;-64
2022/05/22 19:26:38;;;;;;;3.65;2.20;;;;;;;19.46;83.19;99781.19;21036903;28;20478;-64
2022/05/22 19:36:40;;;;;;;4.80;1.88;;;;;;;19.30;80.65;99785.72;21062688;28;20048;-65
2022/05/22 19:46:43;;;;;;;4.78;2.25;;;;;;;19.05;81.90;99823.50;21063821;28;20501;-65
2022/05/22 20:07:06;;;;;;;6.68;2.22;;;;;;;18.91;82.78;99821.69;21061899;28;20048;-64
2022/05/22 20:17:08;;;;;;;4.78;2.05;;;;;;;18.81;77.52;99823.16;21061987;28;20062;-65
2022/05/22 20:27:09;;;;;;;6.35;2.60;;;;;;;18.90;77.99;99809.38;21036167;28;20094;-64
2022/05/22 20:37:11;;;;;;;12.00;2.60;;;;;;;18.92;74.23;99796.84;20974493;28;20515;-64
2022/05/22 20:47:13;;;;;;;6.13;2.00;;;;;;;19.06;70.65;99793.38;20976721;28;20063;-66
2022/05/22 20:57:15;;;;;;;5.40;2.15;;;;;;;19.08;70.50;99771.13;20975494;28;20868;-66
2022/05/22 21:07:21;;;;;;;6.00;2.00;;;;;;;19.17;69.17;99759.94;20975303;28;20048;-66
2022/05/22 21:17:22;;;;;;;4.00;1.70;;;;;;;18.95;73.04;99739.16;21038787;28;20074;-67
2022/05/22 21:37:44;;;;;;;5.55;2.40;;;;;;;18.99;75.38;99721.25;21055924;28;20442;-67
2022/05/22 21:47:45;;;;;;;5.65;2.30;;;;;;;18.84;77.84;99698.34;21056306;28;20044;-66
2022/05/22 21:57:49;;;;;;;6.70;2.17;;;;;;;18.78;78.85;99672.16;21074010;28;20466;-66
2022/05/22 22:07:51;;;;;;;6.47;1.97;;;;;;;18.76;77.29;99674.91;21048302;28;20056;-64
2022/05/22 22:17:53;;;;;;;6.03;2.50;;;;;;;18.40;80.66;99667.38;20996532;28;20052;-65
2022/05/22 22:27:55;;;;;;;4.68;2.03;;;;;;;18.27;82.12;99639.88;20995279;28;20044;-65
2022/05/22 22:37:56;;;;;;;4.80;2.03;;;;;;;17.95;84.62;99629.38;20994895;28;20094;-65
2022/05/22 22:47:59;;;;;;;5.28;2.50;;;;;;;17.62;87.47;99627.69;20994106;28;20599;-65
2022/05/22 22:58:05;;;;;;;4.45;2.10;;;;;;;17.27;90.54;99628.84;20992316;28;20045;-64
2022/05/22 23:08:07;;;;;;;5.03;2.47;;;;;;;16.84;93.06;99608.25;20991438;28;20063;-64
2022/05/22 23:18:09;;;;;;;5.95;2.30;;;;;;;16.61;93.53;99601.50;20991664;28;20049;-65
2022/05/22 23:28:11;;;;;;;5.07;2.55;;;;;;;16.77;92.79;99592.78;20990688;28;20098;-65
2022/05/22 23:38:16;;;;;;;5.90;2.22;;;;;;;16.69;93.08;99587.88;20989711;28;20102;-65
2022/05/22 23:48:17;;;;;;;7.70;2.20;;;;;;;16.74;91.68;99598.25;20989824;28;20044;-64
2022/05/22 23:58:19;;;;;;;5.88;2.50;;;;;;;16.46;94.73;99590.91;20988225;28;20497;-64
